Time;durP1;ratioP1;P1;durP2;ratioP2;P2;SDS_P1;SDS_P2;PMS_P1;PMS_P2;Temp;Humidity;BMP_temperature;BMP_pressure;BME280_temperature;BME280_humidity;BME280_pressure;Samples;Min_cycle;Max_cycle;Signal;HPM_P1;HPM_P2
2022/02/14 00:02:18;;;;;;;11.10;7.57;;;5.40;1.00;;;;;;5101464;28;20470;-58
2022/02/14 00:04:43;;;;;;;10.40;7.13;;;5.30;1.00;;;;;;5104222;28;20889;-60
2022/02/14 00:07:09;;;;;;;12.00;7.00;;;5.30;1.00;;;;;;5105342;28;20468;-60
2022/02/14 00:09:35;;;;;;;11.90;7.77;;;5.30;1.00;;;;;;5092203;28;20182;-60
2022/02/14 00:12:00;;;;;;;12.47;7.70;;;5.20;1.00;;;;;;5100290;28;20450;-60
2022/02/14 00:14:27;;;;;;;11.67;7.80;;;5.20;1.00;;;;;;5110979;28;20253;-59
2022/02/14 00:16:54;;;;;;;9.27;7.00;;;;;;;;;;5098686;28;20182;-60
2022/02/14 00:19:20;;;;;;;10.40;7.37;;;5.10;1.00;;;;;;5093379;28;20949;-59
2022/02/14 00:21:47;;;;;;;9.50;7.10;;;5.10;1.00;;;;;;5103960;28;20460;-60
2022/02/14 00:24:13;;;;;;;12.83;8.00;;;;;;;;;;5097831;28;20510;-58
2022/02/14 00:26:39;;;;;;;8.97;6.70;;;5.00;1.00;;;;;;5099838;28;20474;-59
2022/02/14 00:29:04;;;;;;;10.60;6.90;;;;;;;;;;5097562;28;20441;-61
2022/02/14 00:31:30;;;;;;;11.17;7.43;;;4.90;1.00;;;;;;5100646;28;20467;-59
2022/02/14 00:33:56;;;;;;;9.70;6.50;;;4.90;1.00;;;;;;5099489;28;20502;-60
2022/02/14 00:36:21;;;;;;;12.80;7.97;;;4.90;1.00;;;;;;5106813;28;20304;-61
2022/02/14 00:38:47;;;;;;;7.97;6.90;;;4.90;1.00;;;;;;5076126;28;20186;-60
2022/02/14 00:41:12;;;;;;;8.90;6.77;;;4.90;1.00;;;;;;5096032;28;20260;-61
2022/02/14 00:43:38;;;;;;;9.40;7.00;;;4.90;1.00;;;;;;5103183;28;20206;-60
2022/02/14 00:46:04;;;;;;;11.67;7.00;;;;;;;;;;5101524;28;20194;-60
2022/02/14 00:48:30;;;;;;;8.43;6.40;;;4.80;1.00;;;;;;5097322;28;20309;-60
2022/02/14 00:50:55;;;;;;;9.50;7.33;;;4.90;1.00;;;;;;5100379;28;20439;-58
2022/02/14 00:53:21;;;;;;;8.33;6.23;;;;;;;;;;5094313;28;20217;-60
2022/02/14 00:55:48;;;;;;;11.00;7.40;;;;;;;;;;5101833;28;20181;-59
2022/02/14 00:58:14;;;;;;;10.87;7.70;;;;;;;;;;5108020;28;20440;-60
2022/02/14 01:00:40;;;;;;;9.53;7.73;;;4.80;1.00;;;;;;5099692;28;20462;-60
2022/02/14 01:03:06;;;;;;;7.67;6.20;;;;;;;;;;5095836;28;20470;-60
2022/02/14 01:05:32;;;;;;;11.30;7.53;;;4.80;1.00;;;;;;5104748;28;20448;-59
2022/02/14 01:07:58;;;;;;;11.00;7.50;;;;;;;;;;5096434;28;20472;-59
2022/02/14 01:10:25;;;;;;;9.33;6.77;;;;;;;;;;5076279;28;20439;-59
2022/02/14 01:12:50;;;;;;;13.47;8.43;;;4.70;1.00;;;;;;5081034;28;20478;-59
2022/02/14 01:15:16;;;;;;;13.10;7.70;;;;;;;;;;5091757;28;20445;-59
2022/02/14 01:17:42;;;;;;;10.80;6.80;;;4.70;1.00;;;;;;5101815;28;20197;-59
2022/02/14 01:20:10;;;;;;;8.20;6.67;;;4.70;1.00;;;;;;5107039;28;20560;-59
2022/02/14 01:22:35;;;;;;;8.07;6.63;;;4.70;1.00;;;;;;5103476;28;20203;-59
2022/02/14 01:25:03;;;;;;;8.30;6.80;;;4.70;1.00;;;;;;5098865;28;20510;-59
2022/02/14 01:27:29;;;;;;;11.50;7.40;;;;;;;;;;5093059;28;20208;-61
2022/02/14 01:29:54;;;;;;;9.90;7.57;;;4.60;1.00;;;;;;5104367;28;20436;-59
2022/02/14 01:32:22;;;;;;;8.33;6.43;;;4.60;1.00;;;;;;5106319;28;20547;-59
2022/02/14 01:34:51;;;;;;;9.37;7.27;;;4.70;1.00;;;;;;5092794;28;20261;-59
2022/02/14 01:37:17;;;;;;;10.73;7.37;;;4.70;1.00;;;;;;5100174;28;20455;-60
2022/02/14 01:39:44;;;;;;;9.40;7.20;;;4.70;1.00;;;;;;5101229;28;20447;-60
2022/02/14 01:42:10;;;;;;;9.77;7.03;;;4.70;1.00;;;;;;5102426;28;20493;-60
2022/02/14 01:44:54;;;;;;;12.37;7.60;;;4.60;1.00;;;;;;5105395;28;20439;-59
2022/02/14 01:47:25;;;;;;;8.63;5.90;;;4.60;1.00;;;;;;5080581;28;20499;-60
2022/02/14 01:49:52;;;;;;;9.07;6.03;;;4.50;1.00;;;;;;5103610;28;20431;-59
2022/02/14 01:52:18;;;;;;;10.40;7.17;;;4.60;1.00;;;;;;5098959;28;20473;-59
2022/02/14 01:54:47;;;;;;;12.93;8.30;;;4.50;1.00;;;;;;5105685;28;20468;-59
2022/02/14 01:57:14;;;;;;;9.47;6.90;;;4.40;1.00;;;;;;5112789;28;20443;-59
2022/02/14 01:59:40;;;;;;;10.50;7.50;;;4.50;1.00;;;;;;5110547;28;20531;-59
2022/02/14 02:02:08;;;;;;;10.03;6.90;;;4.50;1.00;;;;;;5108302;28;20531;-59
2022/02/14 02:04:34;;;;;;;10.60;7.03;;;4.40;1.00;;;;;;5106038;28;20501;-59
2022/02/14 02:07:00;;;;;;;12.07;7.70;;;4.40;1.00;;;;;;5099314;28;20558;-60
2022/02/14 02:09:26;;;;;;;10.90;6.80;;;4.40;1.00;;;;;;5096104;28;20527;-59
2022/02/14 02:14:36;;;;;;;11.43;7.00;;;4.30;1.00;;;;;;5098959;28;20192;-60
2022/02/14 02:17:02;;;;;;;9.10;7.27;;;4.30;1.00;;;;;;5098592;28;20535;-59
2022/02/14 02:19:28;;;;;;;11.77;8.73;;;4.30;1.00;;;;;;5093893;28;20179;-59
2022/02/14 02:21:54;;;;;;;8.57;6.63;;;;;;;;;;5097032;28;20787;-60
2022/02/14 02:24:22;;;;;;;10.93;6.87;;;4.20;1.00;;;;;;5094756;28;21212;-59
2022/02/14 02:27:01;;;;;;;9.50;7.10;;;4.30;1.00;;;;;;5100685;28;20825;-59
2022/02/14 02:29:27;;;;;;;7.70;5.73;;;4.20;1.00;;;;;;5103924;28;20450;-59
2022/02/14 02:31:54;;;;;;;9.10;7.57;;;4.20;1.00;;;;;;5098538;28;20472;-59
2022/02/14 02:34:20;;;;;;;10.03;7.00;;;;;;;;;;5106584;28;20455;-60
2022/02/14 02:36:54;;;;;;;11.97;7.60;;;4.20;1.00;;;;;;5104895;28;20440;-59
2022/02/14 02:39:21;;;;;;;8.40;6.53;;;4.10;1.00;;;;;;5097006;28;20449;-59
2022/02/14 02:41:47;;;;;;;10.13;7.20;;;4.00;1.00;;;;;;5106675;28;20937;-59
2022/02/14 02:44:13;;;;;;;10.93;6.43;;;4.00;1.00;;;;;;5110981;28;20446;-59
2022/02/14 02:46:39;;;;;;;9.57;7.27;;;4.00;1.00;;;;;;5102196;28;20798;-59
2022/02/14 02:49:19;;;;;;;8.80;6.40;;;4.00;1.00;;;;;;5093807;28;20438;-59
2022/02/14 02:51:47;;;;;;;11.10;6.97;;;4.00;1.00;;;;;;5100175;28;20597;-59
2022/02/14 02:54:13;;;;;;;9.40;6.80;;;3.90;1.00;;;;;;5105302;28;20451;-59
2022/02/14 02:56:42;;;;;;;8.13;6.53;;;3.90;1.00;;;;;;5100120;28;20470;-59
2022/02/14 02:59:08;;;;;;;7.67;6.43;;;3.90;1.00;;;;;;5111659;28;20452;-59
2022/02/14 03:01:34;;;;;;;10.77;7.20;;;;;;;;;;5080773;28;20772;-60
2022/02/14 03:04:04;;;;;;;11.40;6.90;;;3.90;1.00;;;;;;5096982;28;20432;-59
2022/02/14 03:06:30;;;;;;;9.83;7.53;;;3.80;1.00;;;;;;5096279;28;20559;-59
2022/02/14 03:08:56;;;;;;;10.63;7.37;;;;;;;;;;5102498;28;20523;-60
2022/02/14 03:11:22;;;;;;;14.33;6.63;;;;;;;;;;5096826;28;20781;-60
2022/02/14 03:13:49;;;;;;;10.50;7.37;;;3.70;1.00;;;;;;5111667;28;20438;-59
2022/02/14 03:16:15;;;;;;;10.20;6.80;;;3.80;1.00;;;;;;5091129;28;20447;-60
2022/02/14 03:18:42;;;;;;;8.97;6.97;;;3.70;1.00;;;;;;5106715;28;20440;-59
2022/02/14 03:21:08;;;;;;;12.57;8.37;;;3.70;1.00;;;;;;5112880;28;20876;-59
2022/02/14 03:23:34;;;;;;;13.10;7.40;;;3.80;1.00;;;;;;5099605;28;20439;-59
2022/02/14 03:26:00;;;;;;;9.30;7.90;;;;;;;;;;5112339;28;20447;-59
2022/02/14 03:28:26;;;;;;;9.33;7.27;;;4.20;1.00;;;;;;5105796;28;20551;-59
2022/02/14 03:30:52;;;;;;;8.20;6.77;;;;;;;;;;5107697;28;20532;-59
2022/02/14 03:33:17;;;;;;;10.60;7.63;;;3.80;1.00;;;;;;5099769;28;20444;-59
2022/02/14 03:35:43;;;;;;;11.80;7.27;;;3.80;1.00;;;;;;5105177;28;20445;-59
2022/02/14 03:38:09;;;;;;;9.30;7.10;;;;;;;;;;5103093;28;20671;-59
2022/02/14 03:40:36;;;;;;;10.37;6.77;;;3.80;1.00;;;;;;5092484;28;20190;-60
2022/02/14 03:43:03;;;;;;;9.50;7.13;;;3.70;1.00;;;;;;5102319;28;20448;-59
2022/02/14 03:45:30;;;;;;;8.93;6.30;;;3.70;1.00;;;;;;5112585;28;20520;-60
2022/02/14 03:47:56;;;;;;;10.97;7.73;;;3.80;1.00;;;;;;5099386;28;20468;-60
2022/02/14 03:50:22;;;;;;;10.27;7.40;;;;;;;;;;5099792;28;20435;-60
2022/02/14 03:52:48;;;;;;;9.77;6.80;;;3.80;1.00;;;;;;5100930;28;21038;-60
2022/02/14 03:55:13;;;;;;;8.60;7.07;;;3.80;1.00;;;;;;5095659;28;20968;-59
2022/02/14 03:57:39;;;;;;;12.03;7.27;;;3.80;1.00;;;;;;5102912;28;20243;-59
2022/02/14 04:00:08;;;;;;;10.20;7.37;;;3.70;1.00;;;;;;5107131;28;20194;-59
2022/02/14 04:02:35;;;;;;;9.77;6.70;;;3.70;1.00;;;;;;5107795;28;20453;-59
2022/02/14 04:05:02;;;;;;;9.67;6.40;;;3.70;1.00;;;;;;5098022;28;20491;-59
2022/02/14 04:07:28;;;;;;;10.40;7.23;;;3.70;1.00;;;;;;5104200;28;20476;-59
2022/02/14 04:09:53;;;;;;;9.00;6.37;;;3.70;1.00;;;;;;5096266;28;20448;-59
2022/02/14 04:12:19;;;;;;;9.63;6.43;;;3.70;1.00;;;;;;5099014;28;20190;-59
2022/02/14 04:14:44;;;;;;;13.10;7.10;;;3.60;1.00;;;;;;5103929;28;20205;-59
2022/02/14 04:17:10;;;;;;;12.57;7.37;;;3.60;1.00;;;;;;5098858;28;20187;-59
2022/02/14 04:19:36;;;;;;;7.23;6.47;;;3.60;1.00;;;;;;5094309;28;20206;-60
2022/02/14 04:22:01;;;;;;;8.80;6.70;;;3.60;1.00;;;;;;5095492;28;20260;-59
2022/02/14 04:24:27;;;;;;;9.80;7.50;;;3.70;1.00;;;;;;5092784;28;20183;-59
2022/02/14 04:26:52;;;;;;;11.60;7.40;;;3.70;1.00;;;;;;5099024;28;20222;-59
2022/02/14 04:29:18;;;;;;;13.00;6.50;;;3.60;1.00;;;;;;5093063;28;20183;-59
2022/02/14 04:31:44;;;;;;;8.97;6.50;;;;;;;;;;5097248;28;20187;-59
2022/02/14 04:34:10;;;;;;;7.70;6.87;;;3.60;1.00;;;;;;5103252;28;20436;-59
2022/02/14 04:36:35;;;;;;;9.67;6.50;;;3.60;1.00;;;;;;5096474;28;20844;-59
2022/02/14 04:39:01;;;;;;;8.63;6.80;;;3.60;1.00;;;;;;5095347;28;20186;-59
2022/02/14 04:41:26;;;;;;;9.47;6.77;;;3.60;1.00;;;;;;5095975;28;20179;-59
2022/02/14 04:43:52;;;;;;;10.13;6.83;;;3.60;1.00;;;;;;5107210;28;20181;-59
2022/02/14 04:46:18;;;;;;;10.33;7.10;;;3.50;1.00;;;;;;5104051;28;20186;-60
2022/02/14 04:48:45;;;;;;;10.80;7.30;;;3.50;1.00;;;;;;5097064;28;20729;-60
2022/02/14 04:51:11;;;;;;;8.90;6.93;;;3.50;1.00;;;;;;5091736;28;20445;-59
2022/02/14 04:53:37;;;;;;;8.40;6.33;;;3.50;1.00;;;;;;5098055;28;20528;-59
2022/02/14 04:56:03;;;;;;;12.10;6.93;;;3.50;1.00;;;;;;5084734;28;20202;-59
2022/02/14 04:58:29;;;;;;;10.57;7.67;;;3.50;1.00;;;;;;5085870;28;20447;-59
2022/02/14 05:00:54;;;;;;;12.10;7.37;;;3.60;1.00;;;;;;5101097;28;20440;-59
2022/02/14 05:03:20;;;;;;;7.73;6.07;;;3.60;1.00;;;;;;5102323;28;20214;-60
2022/02/14 05:05:46;;;;;;;10.00;6.40;;;3.70;1.00;;;;;;5098570;28;20210;-60
2022/02/14 05:08:13;;;;;;;9.97;7.27;;;3.80;1.00;;;;;;5103070;28;20460;-61
2022/02/14 05:10:38;;;;;;;8.17;5.97;;;3.70;1.00;;;;;;5099795;28;20190;-61
2022/02/14 05:13:04;;;;;;;9.17;6.83;;;3.70;1.00;;;;;;5103255;28;20462;-61
2022/02/14 05:15:30;;;;;;;9.67;7.07;;;3.70;1.00;;;;;;5095494;28;20262;-61
2022/02/14 05:17:56;;;;;;;9.77;6.70;;;;;;;;;;5092889;28;20187;-59
2022/02/14 05:20:22;;;;;;;9.20;6.63;;;;;;;;;;5090623;28;20248;-62
2022/02/14 05:22:47;;;;;;;9.70;6.70;;;3.70;1.00;;;;;;5092072;28;20771;-61
2022/02/14 05:25:13;;;;;;;12.50;6.97;;;3.70;1.00;;;;;;5092432;28;20777;-60
2022/02/14 05:27:38;;;;;;;13.30;6.70;;;3.60;1.00;;;;;;5073139;28;20225;-60
2022/02/14 05:30:07;;;;;;;8.50;6.60;;;3.80;1.00;;;;;;5092976;28;20179;-61
2022/02/14 05:32:33;;;;;;;7.70;6.27;;;3.70;1.00;;;;;;5091095;28;20190;-62
2022/02/14 05:34:59;;;;;;;8.50;6.53;;;3.80;1.00;;;;;;5090419;28;20436;-61
2022/02/14 05:37:24;;;;;;;9.07;6.70;;;3.70;1.00;;;;;;5074635;28;20946;-61
2022/02/14 05:39:50;;;;;;;9.40;6.63;;;3.70;1.00;;;;;;5093377;28;20189;-62
2022/02/14 05:42:16;;;;;;;10.13;6.60;;;3.70;1.00;;;;;;5107393;28;20178;-61
2022/02/14 05:44:42;;;;;;;9.80;6.80;;;;;;;;;;5109295;28;20201;-63
2022/02/14 05:47:08;;;;;;;9.50;6.87;;;3.60;1.00;;;;;;5093619;28;20484;-62
2022/02/14 05:49:34;;;;;;;8.50;7.50;;;;;;;;;;5089804;28;20444;-62
2022/02/14 05:52:00;;;;;;;8.10;6.00;;;;;;;;;;5110034;28;20556;-60
2022/02/14 05:54:26;;;;;;;10.17;6.80;;;;;;;;;;5108275;28;20461;-61
2022/02/14 05:56:52;;;;;;;9.57;7.07;;;3.70;1.00;;;;;;5075998;28;20459;-61
2022/02/14 05:59:17;;;;;;;8.87;7.27;;;3.60;1.00;;;;;;5090116;28;20520;-60
2022/02/14 06:01:43;;;;;;;9.73;6.63;;;3.60;1.00;;;;;;5103317;28;20194;-61
2022/02/14 06:04:09;;;;;;;9.07;7.00;;;3.60;1.00;;;;;;5093252;28;20186;-60
2022/02/14 06:06:34;;;;;;;10.53;6.70;;;3.60;1.00;;;;;;5096283;28;20225;-61
2022/02/14 06:09:00;;;;;;;11.83;5.90;;;3.60;1.00;;;;;;5104792;28;20178;-60
2022/02/14 06:11:25;;;;;;;12.37;7.30;;;3.60;1.00;;;;;;5100161;28;20247;-60
2022/02/14 06:13:51;;;;;;;9.13;6.90;;;3.60;1.00;;;;;;5109616;28;20182;-62
2022/02/14 06:16:17;;;;;;;8.53;6.40;;;3.50;1.00;;;;;;5102599;28;20205;-61
2022/02/14 06:18:42;;;;;;;10.63;6.93;;;;;;;;;;5105948;28;20277;-62
2022/02/14 06:21:08;;;;;;;10.93;7.37;;;3.60;1.00;;;;;;5100577;28;20262;-62
2022/02/14 06:23:34;;;;;;;10.07;7.30;;;;;;;;;;5099739;28;20937;-62
2022/02/14 06:26:04;;;;;;;11.97;7.63;;;3.60;1.00;;;;;;5109628;28;20436;-62
2022/02/14 06:28:30;;;;;;;12.27;7.40;;;3.70;1.00;;;;;;5097915;28;20868;-61
2022/02/14 06:30:56;;;;;;;8.60;6.00;;;3.60;1.00;;;;;;5076934;28;20432;-62
2022/02/14 06:33:21;;;;;;;9.90;7.63;;;3.70;1.00;;;;;;5094643;28;20525;-62
2022/02/14 06:35:47;;;;;;;8.77;7.03;;;3.60;1.00;;;;;;5075944;28;20210;-62
2022/02/14 06:38:12;;;;;;;14.10;7.03;;;3.70;1.00;;;;;;5106192;28;20183;-64
2022/02/14 06:40:38;;;;;;;11.33;7.17;;;3.70;1.00;;;;;;5098434;28;20190;-61
2022/02/14 06:43:03;;;;;;;10.83;8.10;;;3.70;1.00;;;;;;5078822;28;20183;-61
2022/02/14 06:45:29;;;;;;;9.23;7.17;;;;;;;;;;5112251;28;20201;-61
2022/02/14 06:47:55;;;;;;;13.87;7.60;;;;;;;;;;5110227;28;20210;-61
2022/02/14 06:50:21;;;;;;;10.30;7.20;;;3.70;1.00;;;;;;5106792;28;20447;-61
2022/02/14 06:52:47;;;;;;;13.40;7.60;;;;;;;;;;5099522;28;20464;-60
2022/02/14 06:55:12;;;;;;;8.90;6.23;;;3.80;1.00;;;;;;5094160;28;20311;-62
2022/02/14 06:57:38;;;;;;;8.60;6.20;;;3.80;1.00;;;;;;5075195;28;20447;-61
2022/02/14 07:00:08;;;;;;;9.50;7.43;;;3.90;1.00;;;;;;5093702;28;20531;-60
2022/02/14 07:02:34;;;;;;;13.70;7.73;;;;;;;;;;5094608;28;20205;-62
2022/02/14 07:05:00;;;;;;;10.57;6.87;;;;;;;;;;5113321;28;20432;-61
2022/02/14 07:07:26;;;;;;;9.50;7.00;;;;;;;;;;5095773;28;20519;-61
2022/02/14 07:09:52;;;;;;;11.70;7.73;;;3.80;1.00;;;;;;5097937;28;20467;-61
2022/02/14 07:12:17;;;;;;;18.70;8.57;;;4.00;1.00;;;;;;5090002;28;20766;-61
2022/02/14 07:14:43;;;;;;;8.17;6.20;;;;;;;;;;5106931;28;20278;-60
2022/02/14 07:17:11;;;;;;;8.40;7.27;;;4.00;1.00;;;;;;5100322;28;20231;-61
2022/02/14 07:19:38;;;;;;;8.50;6.20;;;4.10;1.00;;;;;;5094352;28;20435;-60
2022/02/14 07:22:04;;;;;;;13.37;7.97;;;4.10;1.00;;;;;;5108446;28;20529;-61
2022/02/14 07:24:30;;;;;;;15.20;7.73;;;;;;;;;;5105563;28;20441;-60
2022/02/14 07:26:56;;;;;;;10.67;7.33;;;4.20;1.00;;;;;;5101982;28;20474;-62
2022/02/14 07:29:21;;;;;;;8.60;6.60;;;4.20;1.00;;;;;;5099421;28;20437;-60
2022/02/14 07:31:47;;;;;;;12.47;7.60;;;;;;;;;;5093772;28;20189;-61
2022/02/14 07:34:13;;;;;;;9.50;6.80;;;4.40;1.00;;;;;;5092152;28;20186;-62
2022/02/14 07:36:39;;;;;;;10.37;7.60;;;;;;;;;;5085990;28;21091;-61
2022/02/14 07:39:05;;;;;;;9.93;7.00;;;4.40;1.00;;;;;;5112374;28;20582;-62
2022/02/14 07:41:32;;;;;;;12.53;8.10;;;;;;;;;;5112660;28;20990;-62
2022/02/14 07:43:58;;;;;;;11.80;6.93;;;;;;;;;;5112775;28;20447;-62
2022/02/14 07:46:23;;;;;;;10.10;7.57;;;4.50;1.00;;;;;;5110470;28;20436;-62
2022/02/14 07:48:49;;;;;;;13.30;8.37;;;4.60;1.00;;;;;;5106746;28;20436;-61
2022/02/14 07:51:16;;;;;;;9.47;7.00;;;4.60;1.00;;;;;;5112524;28;20178;-62
2022/02/14 07:53:42;;;;;;;7.17;6.27;;;4.70;1.00;;;;;;5112767;28;20243;-62
2022/02/14 07:56:12;;;;;;;9.87;6.20;;;4.80;1.00;;;;;;5110839;28;20420;-62
2022/02/14 07:58:42;;;;;;;8.93;7.40;;;4.80;1.00;;;;;;5113140;28;20186;-62
2022/02/14 08:01:08;;;;;;;10.40;7.63;;;4.90;1.00;;;;;;5110242;28;20439;-62
2022/02/14 08:03:38;;;;;;;9.20;6.50;;;4.90;1.00;;;;;;5108697;28;20762;-63
2022/02/14 08:06:05;;;;;;;13.27;8.33;;;;;;;;;;5110415;28;20721;-62
2022/02/14 08:08:31;;;;;;;10.00;7.47;;;4.90;1.00;;;;;;5109861;28;20816;-62
2022/02/14 08:10:57;;;;;;;8.70;7.37;;;5.00;1.00;;;;;;5112452;28;20481;-62
2022/02/14 08:13:22;;;;;;;11.33;7.93;;;5.20;1.00;;;;;;5100127;28;20182;-63
2022/02/14 08:15:48;;;;;;;8.67;6.90;;;;;;;;;;5106558;28;20431;-61
2022/02/14 08:18:14;;;;;;;9.93;7.13;;;;;;;;;;5094068;28;20190;-62
2022/02/14 08:20:40;;;;;;;8.80;6.70;;;5.30;1.00;;;;;;5092951;28;20440;-61
2022/02/14 08:23:07;;;;;;;10.80;7.10;;;;;;;;;;5109151;28;20473;-63
2022/02/14 08:25:33;;;;;;;11.93;6.90;;;5.40;1.00;;;;;;5087309;28;20217;-61
2022/02/14 08:28:01;;;;;;;9.60;6.93;;;5.50;1.00;;;;;;5095664;28;20630;-62
2022/02/14 08:30:26;;;;;;;13.10;7.57;;;5.70;1.00;;;;;;5109374;28;20945;-63
2022/02/14 08:32:53;;;;;;;12.53;7.80;;;4.50;1.00;;;;;;5109778;28;20432;-62
2022/02/14 08:35:19;;;;;;;8.23;6.30;;;;;;;;;;5108978;28;20174;-62
2022/02/14 08:37:50;;;;;;;10.30;6.33;;;6.40;1.00;;;;;;5100286;28;20519;-62
2022/02/14 08:40:16;;;;;;;10.07;7.07;;;6.60;1.00;;;;;;5074838;28;20859;-62
2022/02/14 08:42:42;;;;;;;11.17;7.50;;;6.70;1.00;;;;;;5110169;28;20445;-62
2022/02/14 08:45:08;;;;;;;15.27;8.80;;;6.70;1.00;;;;;;5111595;28;20428;-62
2022/02/14 08:47:38;;;;;;;9.03;6.90;;;6.70;1.00;;;;;;5111678;28;20459;-62
2022/02/14 08:50:04;;;;;;;10.13;7.93;;;6.60;1.00;;;;;;5111559;28;20959;-62
2022/02/14 08:52:30;;;;;;;9.37;6.87;;;6.80;1.00;;;;;;5111494;28;20570;-62
2022/02/14 08:54:56;;;;;;;7.93;6.70;;;6.90;1.00;;;;;;5093230;28;20561;-62
2022/02/14 08:57:22;;;;;;;9.10;7.73;;;7.00;1.00;;;;;;5111298;28;20506;-63
2022/02/14 08:59:48;;;;;;;8.83;6.97;;;7.30;1.00;;;;;;5111597;28;20197;-62
2022/02/14 09:02:14;;;;;;;8.93;7.37;;;7.30;1.00;;;;;;5111151;28;20193;-62
2022/02/14 09:04:44;;;;;;;9.20;6.93;;;7.30;1.00;;;;;;5091000;28;20446;-62
2022/02/14 09:07:10;;;;;;;9.10;6.53;;;7.30;1.00;;;;;;5100743;28;20455;-62
2022/02/14 09:09:35;;;;;;;11.13;7.50;;;7.20;1.00;;;;;;5092747;28;20227;-62
2022/02/14 09:12:01;;;;;;;11.57;6.90;;;;;;;;;;5111259;28;20345;-62
2022/02/14 09:14:27;;;;;;;16.17;8.03;;;7.20;1.00;;;;;;5110887;28;20242;-62
2022/02/14 09:16:52;;;;;;;9.73;7.37;;;7.30;1.00;;;;;;5110975;28;20920;-62
2022/02/14 09:19:18;;;;;;;9.33;6.80;;;7.30;1.00;;;;;;5096700;28;20179;-62
2022/02/14 09:21:44;;;;;;;9.60;7.40;;;7.30;1.00;;;;;;5090712;28;20222;-62
2022/02/14 09:24:12;;;;;;;9.03;6.57;;;7.40;1.00;;;;;;5090522;28;20449;-63
2022/02/14 09:26:42;;;;;;;8.30;7.20;;;7.40;1.00;;;;;;5090441;28;20733;-62
2022/02/14 09:29:09;;;;;;;8.33;6.77;;;7.50;1.00;;;;;;5090668;28;20973;-62
2022/02/14 09:31:37;;;;;;;7.90;6.73;;;;;;;;;;5094777;28;20436;-62
2022/02/14 09:34:06;;;;;;;9.80;7.07;;;7.40;1.00;;;;;;5110691;28;20427;-62
2022/02/14 09:36:32;;;;;;;8.40;7.27;;;7.50;1.00;;;;;;5092199;28;20431;-62
2022/02/14 09:38:58;;;;;;;8.40;6.40;;;7.70;1.00;;;;;;5091738;28;20895;-62
2022/02/14 09:41:25;;;;;;;9.80;7.50;;;7.60;1.00;;;;;;5095918;28;20527;-62
2022/02/14 09:43:51;;;;;;;9.30;6.80;;;7.60;1.00;;;;;;5071550;28;20187;-63
2022/02/14 09:46:17;;;;;;;12.00;6.90;;;;;;;;;;5090112;28;20433;-62
2022/02/14 09:48:44;;;;;;;7.40;6.60;;;7.80;1.00;;;;;;5090291;28;20447;-61
2022/02/14 09:51:11;;;;;;;10.87;6.70;;;7.90;1.00;;;;;;5090333;28;20433;-62
2022/02/14 09:53:38;;;;;;;9.27;7.07;;;8.00;1.00;;;;;;5069451;28;20437;-62
2022/02/14 09:56:04;;;;;;;10.00;6.67;;;8.00;1.00;;;;;;5070290;28;20434;-62
2022/02/14 09:58:29;;;;;;;9.70;6.50;;;8.00;1.00;;;;;;5070101;28;20452;-62
2022/02/14 10:00:55;;;;;;;10.70;7.73;;;;;;;;;;5069540;28;20179;-61
2022/02/14 10:03:23;;;;;;;7.97;6.97;;;8.10;1.00;;;;;;5070184;28;20183;-63
2022/02/14 10:05:53;;;;;;;8.27;5.80;;;8.30;1.00;;;;;;5069929;28;20443;-63
2022/02/14 10:08:35;;;;;;;7.53;5.70;;;8.30;1.00;;;;;;5070388;28;20457;-62
2022/02/14 10:11:21;;;;;;;7.73;6.80;;;8.40;1.00;;;;;;5069769;28;20433;-62
2022/02/14 10:13:51;;;;;;;10.13;7.30;;;8.60;1.00;;;;;;5069847;28;20429;-63
2022/02/14 10:16:17;;;;;;;10.03;7.53;;;8.60;1.00;;;;;;5073227;28;20417;-62
2022/02/14 10:18:43;;;;;;;9.07;6.67;;;8.60;1.00;;;;;;5073707;28;20437;-63
2022/02/14 10:21:24;;;;;;;8.57;7.07;;;8.60;1.00;;;;;;5074184;28;20535;-62
2022/02/14 10:24:03;;;;;;;10.03;7.07;;;8.70;1.00;;;;;;5072665;28;20437;-63
2022/02/14 10:26:41;;;;;;;10.60;6.47;;;8.80;1.00;;;;;;5073647;28;20431;-63
2022/02/14 10:29:22;;;;;;;7.27;6.53;;;9.00;1.00;;;;;;5073590;28;20544;-63
2022/02/14 10:31:58;;;;;;;9.00;6.90;;;9.10;1.00;;;;;;5073664;28;20439;-62
2022/02/14 10:34:35;;;;;;;9.57;6.27;;;9.20;1.00;;;;;;5073822;28;20513;-63
2022/02/14 10:37:01;;;;;;;7.57;6.63;;;9.20;1.00;;;;;;5073506;28;20525;-62
2022/02/14 10:39:28;;;;;;;11.37;7.23;;;9.40;1.00;;;;;;5073571;28;20502;-61
2022/02/14 10:41:58;;;;;;;9.20;6.53;;;9.40;1.00;;;;;;5073384;28;20927;-62
2022/02/14 10:47:19;;;;;;;7.73;5.40;;;9.50;1.00;;;;;;5073698;28;20495;-62
2022/02/14 10:49:56;;;;;;;10.50;7.27;;;9.60;1.00;;;;;;5073754;28;20515;-61
2022/02/14 10:52:21;;;;;;;9.00;6.20;;;9.80;1.00;;;;;;5092833;28;20522;-62
2022/02/14 10:54:47;;;;;;;8.73;7.33;;;9.70;1.00;;;;;;5103714;28;20445;-63
2022/02/14 10:57:26;;;;;;;7.63;6.83;;;9.70;1.00;;;;;;5100763;28;20186;-63
2022/02/14 10:59:55;;;;;;;8.50;6.83;;;9.80;1.00;;;;;;5094787;28;20190;-63
2022/02/14 11:02:21;;;;;;;10.20;6.37;;;9.90;1.00;;;;;;5075445;28;20550;-62
2022/02/14 11:04:46;;;;;;;8.67;6.90;;;10.00;1.00;;;;;;5093642;28;20872;-63
2022/02/14 11:07:14;;;;;;;9.23;6.97;;;10.00;1.00;;;;;;5102310;28;20206;-63
2022/02/14 11:09:43;;;;;;;10.07;6.90;;;10.20;1.00;;;;;;5113670;28;20243;-63
2022/02/14 11:12:10;;;;;;;6.93;6.23;;;10.20;1.00;;;;;;5113302;28;20444;-63
2022/02/14 11:14:36;;;;;;;7.50;6.57;;;;;;;;;;5113800;28;20561;-63
2022/02/14 11:17:02;;;;;;;7.23;6.07;;;10.30;1.00;;;;;;5112078;28;20538;-63
2022/02/14 11:19:29;;;;;;;9.77;6.80;;;10.40;1.00;;;;;;5106760;28;20444;-62
2022/02/14 11:21:54;;;;;;;10.10;6.30;;;10.30;1.00;;;;;;5112111;28;20458;-63
2022/02/14 11:24:29;;;;;;;7.87;6.33;;;10.40;1.00;;;;;;5092768;28;20440;-62
2022/02/14 11:27:05;;;;;;;8.20;6.50;;;10.40;1.00;;;;;;5091018;28;20189;-63
2022/02/14 11:29:51;;;;;;;9.33;6.57;;;10.50;1.00;;;;;;5113025;28;20428;-63
2022/02/14 11:32:28;;;;;;;7.57;6.53;;;10.50;1.00;;;;;;5096463;28;20465;-63
2022/02/14 11:35:04;;;;;;;10.30;6.50;;;10.60;1.00;;;;;;5104897;28;20997;-63
2022/02/14 11:37:49;;;;;;;7.10;6.07;;;10.50;1.00;;;;;;5104347;28;20444;-63
2022/02/14 11:40:29;;;;;;;8.20;6.03;;;10.70;1.00;;;;;;5099915;28;20440;-63
2022/02/14 11:43:11;;;;;;;5.47;4.93;;;10.80;1.00;;;;;;5094461;28;20815;-63
2022/02/14 11:45:38;;;;;;;8.87;6.43;;;10.70;1.00;;;;;;5104177;28;20555;-63
2022/02/14 11:48:25;;;;;;;6.40;5.80;;;10.70;1.00;;;;;;5092847;28;20457;-63
2022/02/14 11:51:07;;;;;;;7.40;5.73;;;10.70;1.00;;;;;;5111490;28;20777;-63
2022/02/14 11:53:41;;;;;;;6.30;5.33;;;10.70;1.00;;;;;;5112480;28;20538;-63
2022/02/14 11:56:22;;;;;;;7.60;5.70;;;10.80;1.00;;;;;;5112755;28;20434;-63
2022/02/14 11:59:04;;;;;;;8.13;5.80;;;10.80;1.00;;;;;;5112690;28;20439;-63
2022/02/14 12:01:32;;;;;;;6.87;6.27;;;10.80;1.00;;;;;;5112472;28;21006;-63
2022/02/14 12:04:29;;;;;;;7.73;6.40;;;10.90;1.00;;;;;;5110081;28;20916;-63
2022/02/14 12:07:17;;;;;;;10.73;5.83;;;;;;;;;;5092077;28;20460;-63
2022/02/14 12:09:58;;;;;;;8.40;6.70;;;;;;;;;;5110473;28;20447;-63
2022/02/14 12:12:39;;;;;;;7.80;5.20;;;11.20;1.00;;;;;;5112344;28;20424;-63
2022/02/14 12:20:44;;;;;;;7.30;6.20;;;11.10;1.00;;;;;;5104756;28;20865;-63
2022/02/14 12:23:10;;;;;;;12.17;6.80;;;;;;;;;;5111013;28;20467;-63
2022/02/14 12:25:47;;;;;;;7.67;5.80;;;11.20;1.00;;;;;;5106611;28;20473;-63
2022/02/14 12:28:13;;;;;;;10.63;6.37;;;;;;;;;;5091258;28;20460;-63
2022/02/14 12:30:45;;;;;;;10.40;6.57;;;11.20;1.00;;;;;;5091590;28;20794;-63
2022/02/14 12:33:12;;;;;;;13.23;7.20;;;11.20;1.00;;;;;;5095866;28;20436;-63
2022/02/14 12:35:41;;;;;;;7.50;6.57;;;11.10;1.00;;;;;;5100375;28;20440;-63
2022/02/14 12:38:07;;;;;;;7.23;6.17;;;11.00;1.00;;;;;;5111076;28;20428;-63
2022/02/14 12:40:54;;;;;;;9.53;6.00;;;10.90;1.00;;;;;;5106783;28;20433;-63
2022/02/14 12:43:27;;;;;;;9.40;7.57;;;10.90;1.00;;;;;;5111780;28;20451;-63
2022/02/14 12:45:55;;;;;;;9.97;7.10;;;10.90;1.00;;;;;;5108138;28;20527;-63
2022/02/14 12:48:38;;;;;;;7.27;5.63;;;10.90;1.00;;;;;;5098722;28;20475;-63
2022/02/14 12:51:04;;;;;;;9.80;7.57;;;11.00;1.00;;;;;;5108895;28;20447;-64
2022/02/14 12:53:30;;;;;;;9.20;7.90;;;11.00;1.00;;;;;;5107641;28;20495;-63
2022/02/14 12:56:18;;;;;;;9.87;8.20;;;11.00;1.00;;;;;;5111379;28;20464;-63
2022/02/14 12:59:05;;;;;;;12.03;7.87;;;10.90;1.00;;;;;;5104352;28;20432;-63
2022/02/14 13:01:33;;;;;;;12.13;8.47;;;10.70;1.00;;;;;;5089397;28;20443;-63
2022/02/14 13:04:01;;;;;;;11.90;7.47;;;10.70;1.00;;;;;;5111330;28;20439;-63
2022/02/14 13:06:48;;;;;;;8.97;6.83;;;10.50;1.00;;;;;;5111375;28;20781;-63
2022/02/14 13:09:25;;;;;;;10.40;7.47;;;10.40;1.00;;;;;;5097555;28;20974;-63
2022/02/14 13:11:53;;;;;;;10.13;7.90;;;10.40;1.00;;;;;;5111323;28;20428;-62
2022/02/14 13:14:28;;;;;;;13.10;8.27;;;10.40;1.00;;;;;;5076463;28;20523;-63
2022/02/14 13:16:55;;;;;;;10.33;8.73;;;10.40;1.00;;;;;;5111403;28;20436;-64
2022/02/14 13:19:22;;;;;;;10.40;8.70;;;10.50;1.00;;;;;;5111401;28;20440;-63
2022/02/14 13:21:48;;;;;;;14.80;9.67;;;10.60;1.00;;;;;;5082457;28;20448;-63
2022/02/14 13:24:20;;;;;;;10.90;9.17;;;10.50;1.00;;;;;;5090660;28;20456;-63
2022/02/14 13:26:45;;;;;;;9.93;8.80;;;10.50;1.00;;;;;;5090831;28;20866;-63
2022/02/14 13:29:11;;;;;;;11.90;8.97;;;10.50;1.00;;;;;;5090744;28;20425;-62
2022/02/14 13:31:37;;;;;;;12.37;8.53;;;10.40;1.00;;;;;;5090834;28;20258;-62